sensor_id;sensor_type;location;lat;lon;timestamp;temperature;humidity
15357;DHT22;7778;48.792;9.260;2023-05-13T00:02:15;11.50;99.90
15357;DHT22;7778;48.792;9.260;2023-05-13T00:05:00;11.40;99.90
15357;DHT22;7778;48.792;9.260;2023-05-13T00:07:46;11.40;99.90
15357;DHT22;7778;48.792;9.260;2023-05-13T00:10:32;11.30;99.90
15357;DHT22;7778;48.792;9.260;2023-05-13T00:13:19;11.30;99.90
15357;DHT22;7778;48.792;9.260;2023-05-13T00:16:05;11.40;99.90
15357;DHT22;7778;48.792;9.260;2023-05-13T00:18:50;11.30;99.90
15357;DHT22;7778;48.792;9.260;2023-05-13T00:21:36;11.30;99.90
15357;DHT22;7778;48.792;9.260;2023-05-13T00:24:21;11.30;99.90
15357;DHT22;7778;48.792;9.260;2023-05-13T00:27:07;11.30;99.90
15357;DHT22;7778;48.792;9.260;2023-05-13T00:29:54;11.30;99.90
15357;DHT22;7778;48.792;9.260;2023-05-13T00:32:40;11.20;99.90
15357;DHT22;7778;48.792;9.260;2023-05-13T00:35:25;11.20;99.90
15357;DHT22;7778;48.792;9.260;2023-05-13T00:38:11;11.20;99.90
15357;DHT22;7778;48.792;9.260;2023-05-13T00:40:56;11.10;99.90
15357;DHT22;7778;48.792;9.260;2023-05-13T00:43:42;11.20;99.90
15357;DHT22;7778;48.792;9.260;2023-05-13T00:46:31;11.10;99.90
15357;DHT22;7778;48.792;9.260;2023-05-13T00:49:17;11.10;99.90
15357;DHT22;7778;48.792;9.260;2023-05-13T00:52:03;11.10;99.90
15357;DHT22;7778;48.792;9.260;2023-05-13T00:54:49;11.10;99.90
15357;DHT22;7778;48.792;9.260;2023-05-13T00:57:36;11.20;99.90
15357;DHT22;7778;48.792;9.260;2023-05-13T01:00:23;11.20;99.90
15357;DHT22;7778;48.792;9.260;2023-05-13T01:03:12;11.10;99.90
15357;DHT22;7778;48.792;9.260;2023-05-13T01:06:05;11.10;99.90
15357;DHT22;7778;48.792;9.260;2023-05-13T01:09:00;11.00;99.90
15357;DHT22;7778;48.792;9.260;2023-05-13T01:11:51;11.00;99.90
15357;DHT22;7778;48.792;9.260;2023-05-13T01:14:43;11.00;99.90
15357;DHT22;7778;48.792;9.260;2023-05-13T01:17:35;11.00;99.90
15357;DHT22;7778;48.792;9.260;2023-05-13T01:20:27;10.90;99.90
15357;DHT22;7778;48.792;9.260;2023-05-13T01:23:16;10.80;99.90
15357;DHT22;7778;48.792;9.260;2023-05-13T01:26:01;10.70;99.90
15357;DHT22;7778;48.792;9.260;2023-05-13T01:28:47;10.70;99.90
15357;DHT22;7778;48.792;9.260;2023-05-13T01:31:33;10.60;99.90
15357;DHT22;7778;48.792;9.260;2023-05-13T01:34:21;10.50;99.90
15357;DHT22;7778;48.792;9.260;2023-05-13T01:37:07;10.40;99.90
15357;DHT22;7778;48.792;9.260;2023-05-13T01:39:54;10.40;99.90
15357;DHT22;7778;48.792;9.260;2023-05-13T01:42:41;10.40;99.90
15357;DHT22;7778;48.792;9.260;2023-05-13T01:45:27;10.50;99.90
15357;DHT22;7778;48.792;9.260;2023-05-13T01:48:13;10.30;99.90
15357;DHT22;7778;48.792;9.260;2023-05-13T01:50:59;10.20;99.90
15357;DHT22;7778;48.792;9.260;2023-05-13T01:53:44;10.20;99.90
15357;DHT22;7778;48.792;9.260;2023-05-13T01:56:31;10.10;99.90
15357;DHT22;7778;48.792;9.260;2023-05-13T01:59:17;10.10;99.90
15357;DHT22;7778;48.792;9.260;2023-05-13T02:02:03;10.00;99.90
15357;DHT22;7778;48.792;9.260;2023-05-13T02:04:49;10.00;99.90
15357;DHT22;7778;48.792;9.260;2023-05-13T02:07:34;10.00;99.90
15357;DHT22;7778;48.792;9.260;2023-05-13T02:10:21;10.10;99.90
15357;DHT22;7778;48.792;9.260;2023-05-13T02:13:08;10.10;99.90
15357;DHT22;7778;48.792;9.260;2023-05-13T02:15:53;10.10;99.90
15357;DHT22;7778;48.792;9.260;2023-05-13T02:18:39;10.10;99.90
15357;DHT22;7778;48.792;9.260;2023-05-13T02:21:25;10.20;99.90
15357;DHT22;7778;48.792;9.260;2023-05-13T02:24:10;10.20;99.90
15357;DHT22;7778;48.792;9.260;2023-05-13T02:26:56;10.10;99.90
15357;DHT22;7778;48.792;9.260;2023-05-13T02:29:43;10.20;99.90
15357;DHT22;7778;48.792;9.260;2023-05-13T02:32:29;10.20;99.90
15357;DHT22;7778;48.792;9.260;2023-05-13T02:35:14;10.20;99.90
15357;DHT22;7778;48.792;9.260;2023-05-13T02:38:00;10.20;99.90
15357;DHT22;7778;48.792;9.260;2023-05-13T02:40:48;10.20;99.90
15357;DHT22;7778;48.792;9.260;2023-05-13T02:43:33;10.30;99.90
15357;DHT22;7778;48.792;9.260;2023-05-13T02:46:20;10.40;99.90
15357;DHT22;7778;48.792;9.260;2023-05-13T02:49:05;10.50;99.90
15357;DHT22;7778;48.792;9.260;2023-05-13T02:51:51;10.60;99.90
15357;DHT22;7778;48.792;9.260;2023-05-13T02:54:36;10.40;99.90
15357;DHT22;7778;48.792;9.260;2023-05-13T02:57:22;10.50;99.90
15357;DHT22;7778;48.792;9.260;2023-05-13T03:00:08;10.50;99.90
15357;DHT22;7778;48.792;9.260;2023-05-13T03:02:56;10.50;99.90
15357;DHT22;7778;48.792;9.260;2023-05-13T03:05:41;10.70;99.90
15357;DHT22;7778;48.792;9.260;2023-05-13T03:08:27;10.70;99.90
15357;DHT22;7778;48.792;9.260;2023-05-13T03:11:12;10.90;99.90
15357;DHT22;7778;48.792;9.260;2023-05-13T03:13:58;11.00;99.90
15357;DHT22;7778;48.792;9.260;2023-05-13T03:16:44;11.00;99.90
15357;DHT22;7778;48.792;9.260;2023-05-13T03:19:31;11.00;99.90
15357;DHT22;7778;48.792;9.260;2023-05-13T03:22:17;11.00;99.90
15357;DHT22;7778;48.792;9.260;2023-05-13T03:25:03;11.10;99.90
15357;DHT22;7778;48.792;9.260;2023-05-13T03:27:49;11.10;99.90
15357;DHT22;7778;48.792;9.260;2023-05-13T03:30:35;11.10;99.90
15357;DHT22;7778;48.792;9.260;2023-05-13T03:33:20;11.10;99.90
15357;DHT22;7778;48.792;9.260;2023-05-13T03:36:07;11.10;99.90
15357;DHT22;7778;48.792;9.260;2023-05-13T03:38:53;11.10;99.90
15357;DHT22;7778;48.792;9.260;2023-05-13T03:41:38;11.00;99.90
15357;DHT22;7778;48.792;9.260;2023-05-13T03:44:24;11.10;99.90
15357;DHT22;7778;48.792;9.260;2023-05-13T03:47:10;11.10;99.90
15357;DHT22;7778;48.792;9.260;2023-05-13T03:49:56;11.10;99.90
15357;DHT22;7778;48.792;9.260;2023-05-13T03:52:43;11.10;99.90
15357;DHT22;7778;48.792;9.260;2023-05-13T03:55:28;11.00;99.90
15357;DHT22;7778;48.792;9.260;2023-05-13T03:58:15;11.10;99.90
15357;DHT22;7778;48.792;9.260;2023-05-13T04:01:01;11.00;99.90
15357;DHT22;7778;48.792;9.260;2023-05-13T04:03:47;11.00;99.90
15357;DHT22;7778;48.792;9.260;2023-05-13T04:06:33;11.00;99.90
15357;DHT22;7778;48.792;9.260;2023-05-13T04:09:20;11.10;99.90
15357;DHT22;7778;48.792;9.260;2023-05-13T04:12:05;11.20;99.90
15357;DHT22;7778;48.792;9.260;2023-05-13T04:14:51;11.20;99.90
15357;DHT22;7778;48.792;9.260;2023-05-13T04:17:37;11.30;99.90
15357;DHT22;7778;48.792;9.260;2023-05-13T04:20:22;11.30;99.90
15357;DHT22;7778;48.792;9.260;2023-05-13T04:23:08;11.20;99.90
15357;DHT22;7778;48.792;9.260;2023-05-13T04:25:55;11.20;99.90
15357;DHT22;7778;48.792;9.260;2023-05-13T04:28:41;11.10;99.90
15357;DHT22;7778;48.792;9.260;2023-05-13T04:31:26;11.10;99.90
15357;DHT22;7778;48.792;9.260;2023-05-13T04:34:12;11.00;99.90
15357;DHT22;7778;48.792;9.260;2023-05-13T04:36:57;11.00;99.90
15357;DHT22;7778;48.792;9.260;2023-05-13T04:39:45;11.00;99.90
15357;DHT22;7778;48.792;9.260;2023-05-13T04:42:32;11.00;99.90
15357;DHT22;7778;48.792;9.260;2023-05-13T04:45:18;11.00;99.90
15357;DHT22;7778;48.792;9.260;2023-05-13T04:48:04;10.90;99.90
15357;DHT22;7778;48.792;9.260;2023-05-13T04:50:50;10.90;99.90
15357;DHT22;7778;48.792;9.260;2023-05-13T04:53:35;10.90;99.90
15357;DHT22;7778;48.792;9.260;2023-05-13T04:56:21;10.80;99.90
15357;DHT22;7778;48.792;9.260;2023-05-13T04:59:08;10.80;99.90
15357;DHT22;7778;48.792;9.260;2023-05-13T05:01:54;10.80;99.90
15357;DHT22;7778;48.792;9.260;2023-05-13T05:04:40;10.70;99.90
15357;DHT22;7778;48.792;9.260;2023-05-13T05:07:25;10.60;99.90
15357;DHT22;7778;48.792;9.260;2023-05-13T05:10:11;10.70;99.90
15357;DHT22;7778;48.792;9.260;2023-05-13T05:12:58;10.80;99.90
15357;DHT22;7778;48.792;9.260;2023-05-13T05:15:45;10.80;99.90
15357;DHT22;7778;48.792;9.260;2023-05-13T05:18:30;11.00;99.90
15357;DHT22;7778;48.792;9.260;2023-05-13T05:21:16;11.00;99.90
15357;DHT22;7778;48.792;9.260;2023-05-13T05:24:02;11.10;99.90
15357;DHT22;7778;48.792;9.260;2023-05-13T05:26:48;11.20;99.90
15357;DHT22;7778;48.792;9.260;2023-05-13T05:29:34;11.20;99.90
15357;DHT22;7778;48.792;9.260;2023-05-13T05:32:21;11.30;99.90
15357;DHT22;7778;48.792;9.260;2023-05-13T05:35:08;11.40;99.90
15357;DHT22;7778;48.792;9.260;2023-05-13T05:37:54;11.40;99.90
15357;DHT22;7778;48.792;9.260;2023-05-13T05:40:40;11.50;99.90
15357;DHT22;7778;48.792;9.260;2023-05-13T05:43:26;11.30;99.90
15357;DHT22;7778;48.792;9.260;2023-05-13T05:46:12;11.30;99.90
15357;DHT22;7778;48.792;9.260;2023-05-13T05:49:00;11.40;99.90
15357;DHT22;7778;48.792;9.260;2023-05-13T05:51:46;11.40;99.90
15357;DHT22;7778;48.792;9.260;2023-05-13T05:54:31;11.40;99.90
15357;DHT22;7778;48.792;9.260;2023-05-13T05:57:17;11.30;99.90
15357;DHT22;7778;48.792;9.260;2023-05-13T06:00:04;11.30;99.90
15357;DHT22;7778;48.792;9.260;2023-05-13T06:02:51;11.20;99.90
15357;DHT22;7778;48.792;9.260;2023-05-13T06:05:38;11.20;99.90
15357;DHT22;7778;48.792;9.260;2023-05-13T06:08:24;11.20;99.90
15357;DHT22;7778;48.792;9.260;2023-05-13T06:11:13;11.30;99.90
15357;DHT22;7778;48.792;9.260;2023-05-13T06:13:59;11.30;99.90
15357;DHT22;7778;48.792;9.260;2023-05-13T06:16:45;11.20;99.90
15357;DHT22;7778;48.792;9.260;2023-05-13T06:19:30;11.30;99.90
15357;DHT22;7778;48.792;9.260;2023-05-13T06:22:17;11.30;99.90
15357;DHT22;7778;48.792;9.260;2023-05-13T06:25:03;11.40;99.90
15357;DHT22;7778;48.792;9.260;2023-05-13T06:27:50;11.60;99.90
15357;DHT22;7778;48.792;9.260;2023-05-13T06:30:35;11.80;99.90
15357;DHT22;7778;48.792;9.260;2023-05-13T06:33:21;12.10;99.90
15357;DHT22;7778;48.792;9.260;2023-05-13T06:36:07;11.90;99.90
15357;DHT22;7778;48.792;9.260;2023-05-13T06:38:54;12.00;99.90
15357;DHT22;7778;48.792;9.260;2023-05-13T06:41:40;12.20;99.90
15357;DHT22;7778;48.792;9.260;2023-05-13T06:44:26;12.40;99.90
15357;DHT22;7778;48.792;9.260;2023-05-13T06:47:11;12.50;99.90
15357;DHT22;7778;48.792;9.260;2023-05-13T06:49:59;12.50;99.90
15357;DHT22;7778;48.792;9.260;2023-05-13T06:52:45;12.60;99.90
15357;DHT22;7778;48.792;9.260;2023-05-13T06:55:31;12.60;99.90
15357;DHT22;7778;48.792;9.260;2023-05-13T06:58:24;12.50;99.90
15357;DHT22;7778;48.792;9.260;2023-05-13T07:01:10;12.60;99.90
15357;DHT22;7778;48.792;9.260;2023-05-13T07:03:56;12.70;99.90
15357;DHT22;7778;48.792;9.260;2023-05-13T07:06:42;12.70;99.90
15357;DHT22;7778;48.792;9.260;2023-05-13T07:09:27;12.60;99.90
15357;DHT22;7778;48.792;9.260;2023-05-13T07:12:14;12.60;99.90
15357;DHT22;7778;48.792;9.260;2023-05-13T07:15:00;12.80;99.90
15357;DHT22;7778;48.792;9.260;2023-05-13T07:17:45;12.90;99.90
15357;DHT22;7778;48.792;9.260;2023-05-13T07:20:31;13.00;99.90
15357;DHT22;7778;48.792;9.260;2023-05-13T07:23:16;13.10;99.90
15357;DHT22;7778;48.792;9.260;2023-05-13T07:26:02;13.00;99.90
15357;DHT22;7778;48.792;9.260;2023-05-13T07:28:49;12.80;99.90
15357;DHT22;7778;48.792;9.260;2023-05-13T07:31:34;12.60;99.90
15357;DHT22;7778;48.792;9.260;2023-05-13T07:34:20;12.80;99.90
15357;DHT22;7778;48.792;9.260;2023-05-13T07:37:09;12.90;99.90
15357;DHT22;7778;48.792;9.260;2023-05-13T07:39:55;13.40;99.90
15357;DHT22;7778;48.792;9.260;2023-05-13T07:42:40;13.50;99.90
15357;DHT22;7778;48.792;9.260;2023-05-13T07:45:27;13.60;99.90
15357;DHT22;7778;48.792;9.260;2023-05-13T07:48:13;13.50;99.90
15357;DHT22;7778;48.792;9.260;2023-05-13T07:51:01;13.60;99.90
15357;DHT22;7778;48.792;9.260;2023-05-13T07:53:46;13.60;99.90
15357;DHT22;7778;48.792;9.260;2023-05-13T07:56:32;13.70;99.90
15357;DHT22;7778;48.792;9.260;2023-05-13T07:59:17;13.60;99.90
15357;DHT22;7778;48.792;9.260;2023-05-13T08:02:05;13.40;99.90
15357;DHT22;7778;48.792;9.260;2023-05-13T08:04:50;13.30;99.90
15357;DHT22;7778;48.792;9.260;2023-05-13T08:07:36;13.10;99.90
15357;DHT22;7778;48.792;9.260;2023-05-13T08:10:21;13.20;99.90
15357;DHT22;7778;48.792;9.260;2023-05-13T08:13:07;13.20;99.90
15357;DHT22;7778;48.792;9.260;2023-05-13T08:15:52;13.40;99.90
15357;DHT22;7778;48.792;9.260;2023-05-13T08:18:39;13.40;99.90
15357;DHT22;7778;48.792;9.260;2023-05-13T08:21:25;13.50;99.90
15357;DHT22;7778;48.792;9.260;2023-05-13T08:24:11;13.80;99.90
15357;DHT22;7778;48.792;9.260;2023-05-13T08:26:56;14.00;99.90
15357;DHT22;7778;48.792;9.260;2023-05-13T08:29:42;14.20;99.90
15357;DHT22;7778;48.792;9.260;2023-05-13T08:32:27;14.10;99.90
15357;DHT22;7778;48.792;9.260;2023-05-13T08:35:14;14.00;99.90
15357;DHT22;7778;48.792;9.260;2023-05-13T08:38:00;14.00;99.90
15357;DHT22;7778;48.792;9.260;2023-05-13T08:40:47;13.70;99.90
15357;DHT22;7778;48.792;9.260;2023-05-13T08:43:32;13.60;99.90
15357;DHT22;7778;48.792;9.260;2023-05-13T08:46:21;13.50;99.90
15357;DHT22;7778;48.792;9.260;2023-05-13T08:49:11;13.40;99.90
15357;DHT22;7778;48.792;9.260;2023-05-13T08:51:58;13.50;99.90
15357;DHT22;7778;48.792;9.260;2023-05-13T08:54:44;13.40;99.90
15357;DHT22;7778;48.792;9.260;2023-05-13T08:57:30;13.30;99.90
15357;DHT22;7778;48.792;9.260;2023-05-13T09:00:16;13.30;99.90
15357;DHT22;7778;48.792;9.260;2023-05-13T09:03:02;13.40;99.90
15357;DHT22;7778;48.792;9.260;2023-05-13T09:05:48;13.40;99.90
15357;DHT22;7778;48.792;9.260;2023-05-13T09:08:36;13.40;99.90
15357;DHT22;7778;48.792;9.260;2023-05-13T09:11:22;13.50;99.90
15357;DHT22;7778;48.792;9.260;2023-05-13T09:14:08;13.70;99.90
15357;DHT22;7778;48.792;9.260;2023-05-13T09:16:55;13.80;99.90
15357;DHT22;7778;48.792;9.260;2023-05-13T09:19:41;13.80;99.90
15357;DHT22;7778;48.792;9.260;2023-05-13T09:22:26;14.00;99.90
15357;DHT22;7778;48.792;9.260;2023-05-13T09:25:15;14.30;99.90
15357;DHT22;7778;48.792;9.260;2023-05-13T09:28:03;14.30;99.90
15357;DHT22;7778;48.792;9.260;2023-05-13T09:30:53;14.40;99.90
15357;DHT22;7778;48.792;9.260;2023-05-13T09:33:51;14.60;99.90
15357;DHT22;7778;48.792;9.260;2023-05-13T09:36:37;14.70;99.90
15357;DHT22;7778;48.792;9.260;2023-05-13T09:39:23;14.70;99.90
15357;DHT22;7778;48.792;9.260;2023-05-13T09:42:16;14.90;99.90
15357;DHT22;7778;48.792;9.260;2023-05-13T09:45:04;14.70;99.90
15357;DHT22;7778;48.792;9.260;2023-05-13T09:47:53;14.60;99.90
15357;DHT22;7778;48.792;9.260;2023-05-13T09:50:46;14.80;99.90
15357;DHT22;7778;48.792;9.260;2023-05-13T09:53:33;14.80;99.90
15357;DHT22;7778;48.792;9.260;2023-05-13T09:56:19;14.70;99.90
15357;DHT22;7778;48.792;9.260;2023-05-13T09:59:08;14.80;99.90
15357;DHT22;7778;48.792;9.260;2023-05-13T10:01:58;15.00;99.90
15357;DHT22;7778;48.792;9.260;2023-05-13T10:04:47;14.90;99.90
15357;DHT22;7778;48.792;9.260;2023-05-13T10:07:33;14.80;99.90
15357;DHT22;7778;48.792;9.260;2023-05-13T10:10:21;14.90;99.90
15357;DHT22;7778;48.792;9.260;2023-05-13T10:13:08;14.80;99.90
15357;DHT22;7778;48.792;9.260;2023-05-13T10:15:56;14.60;99.90
15357;DHT22;7778;48.792;9.260;2023-05-13T10:18:42;14.40;99.90
15357;DHT22;7778;48.792;9.260;2023-05-13T10:21:28;14.30;99.90
15357;DHT22;7778;48.792;9.260;2023-05-13T10:24:15;14.30;99.90
15357;DHT22;7778;48.792;9.260;2023-05-13T10:27:02;14.40;99.90
15357;DHT22;7778;48.792;9.260;2023-05-13T10:29:53;14.30;99.90
15357;DHT22;7778;48.792;9.260;2023-05-13T10:32:41;14.10;99.90
15357;DHT22;7778;48.792;9.260;2023-05-13T10:35:30;14.20;99.90
15357;DHT22;7778;48.792;9.260;2023-05-13T10:38:25;14.30;99.90
15357;DHT22;7778;48.792;9.260;2023-05-13T10:41:34;14.30;99.90
15357;DHT22;7778;48.792;9.260;2023-05-13T10:44:34;14.20;99.90
15357;DHT22;7778;48.792;9.260;2023-05-13T10:47:20;14.20;99.90
15357;DHT22;7778;48.792;9.260;2023-05-13T10:50:21;14.30;99.90
15357;DHT22;7778;48.792;9.260;2023-05-13T10:53:09;14.50;99.90
15357;DHT22;7778;48.792;9.260;2023-05-13T10:56:03;14.50;99.90
15357;DHT22;7778;48.792;9.260;2023-05-13T10:58:59;14.90;99.90
15357;DHT22;7778;48.792;9.260;2023-05-13T11:01:48;15.20;99.90
15357;DHT22;7778;48.792;9.260;2023-05-13T11:04:57;15.60;99.90
15357;DHT22;7778;48.792;9.260;2023-05-13T11:07:53;16.00;99.90
15357;DHT22;7778;48.792;9.260;2023-05-13T11:10:40;16.30;99.90
15357;DHT22;7778;48.792;9.260;2023-05-13T11:13:34;16.60;99.90
15357;DHT22;7778;48.792;9.260;2023-05-13T11:16:25;16.80;99.90
15357;DHT22;7778;48.792;9.260;2023-05-13T11:19:18;16.80;99.90
15357;DHT22;7778;48.792;9.260;2023-05-13T11:22:08;16.90;99.90
15357;DHT22;7778;48.792;9.260;2023-05-13T11:25:05;16.90;99.90
15357;DHT22;7778;48.792;9.260;2023-05-13T11:27:52;16.50;99.90
15357;DHT22;7778;48.792;9.260;2023-05-13T11:30:37;16.50;99.90
15357;DHT22;7778;48.792;9.260;2023-05-13T11:33:23;16.30;99.90
15357;DHT22;7778;48.792;9.260;2023-05-13T11:36:09;16.10;99.90
15357;DHT22;7778;48.792;9.260;2023-05-13T11:38:55;15.90;99.90
15357;DHT22;7778;48.792;9.260;2023-05-13T11:41:52;16.00;99.90
15357;DHT22;7778;48.792;9.260;2023-05-13T11:44:44;16.10;99.90
15357;DHT22;7778;48.792;9.260;2023-05-13T11:47:30;15.90;99.90
15357;DHT22;7778;48.792;9.260;2023-05-13T11:50:20;15.50;99.90
15357;DHT22;7778;48.792;9.260;2023-05-13T11:53:06;15.40;99.90
15357;DHT22;7778;48.792;9.260;2023-05-13T11:55:51;15.40;99.90
15357;DHT22;7778;48.792;9.260;2023-05-13T11:58:40;15.60;99.90
15357;DHT22;7778;48.792;9.260;2023-05-13T12:01:25;15.50;99.90
15357;DHT22;7778;48.792;9.260;2023-05-13T12:04:11;15.40;99.90
15357;DHT22;7778;48.792;9.260;2023-05-13T12:06:57;15.30;99.90
15357;DHT22;7778;48.792;9.260;2023-05-13T12:09:43;15.10;99.90
15357;DHT22;7778;48.792;9.260;2023-05-13T12:12:30;14.90;99.90
15357;DHT22;7778;48.792;9.260;2023-05-13T12:15:20;15.20;99.90
15357;DHT22;7778;48.792;9.260;2023-05-13T12:18:06;15.00;99.90
15357;DHT22;7778;48.792;9.260;2023-05-13T12:20:52;14.80;99.90
15357;DHT22;7778;48.792;9.260;2023-05-13T12:23:40;15.00;99.90
15357;DHT22;7778;48.792;9.260;2023-05-13T12:26:27;15.30;99.90
15357;DHT22;7778;48.792;9.260;2023-05-13T12:29:14;15.50;99.90
15357;DHT22;7778;48.792;9.260;2023-05-13T12:32:07;15.50;99.90
15357;DHT22;7778;48.792;9.260;2023-05-13T12:34:54;15.90;99.90
15357;DHT22;7778;48.792;9.260;2023-05-13T12:37:40;16.00;99.90
15357;DHT22;7778;48.792;9.260;2023-05-13T12:40:26;16.00;99.90
15357;DHT22;7778;48.792;9.260;2023-05-13T12:43:12;15.80;99.90
15357;DHT22;7778;48.792;9.260;2023-05-13T12:46:01;15.90;99.90
15357;DHT22;7778;48.792;9.260;2023-05-13T12:48:51;16.20;99.90
15357;DHT22;7778;48.792;9.260;2023-05-13T12:51:39;16.40;99.90
15357;DHT22;7778;48.792;9.260;2023-05-13T12:54:24;16.30;99.90
15357;DHT22;7778;48.792;9.260;2023-05-13T12:57:14;16.40;99.90
15357;DHT22;7778;48.792;9.260;2023-05-13T13:00:01;16.60;99.90
15357;DHT22;7778;48.792;9.260;2023-05-13T13:02:48;16.40;99.90
15357;DHT22;7778;48.792;9.260;2023-05-13T13:05:36;16.80;99.90
15357;DHT22;7778;48.792;9.260;2023-05-13T13:08:21;17.30;99.90
15357;DHT22;7778;48.792;9.260;2023-05-13T13:11:07;17.10;99.90
15357;DHT22;7778;48.792;9.260;2023-05-13T13:13:53;16.50;99.90
15357;DHT22;7778;48.792;9.260;2023-05-13T13:16:38;16.50;99.90
15357;DHT22;7778;48.792;9.260;2023-05-13T13:19:24;16.40;99.90
15357;DHT22;7778;48.792;9.260;2023-05-13T13:22:11;15.90;99.90
15357;DHT22;7778;48.792;9.260;2023-05-13T13:24:57;15.90;99.90
15357;DHT22;7778;48.792;9.260;2023-05-13T13:27:42;16.20;99.90
15357;DHT22;7778;48.792;9.260;2023-05-13T13:30:31;16.40;99.90
15357;DHT22;7778;48.792;9.260;2023-05-13T13:33:20;16.60;99.90
15357;DHT22;7778;48.792;9.260;2023-05-13T13:36:06;16.70;99.90
15357;DHT22;7778;48.792;9.260;2023-05-13T13:38:56;16.50;99.90
15357;DHT22;7778;48.792;9.260;2023-05-13T13:41:42;16.30;99.90
15357;DHT22;7778;48.792;9.260;2023-05-13T13:44:27;16.20;99.90
15357;DHT22;7778;48.792;9.260;2023-05-13T13:47:14;16.10;99.90
15357;DHT22;7778;48.792;9.260;2023-05-13T13:49:59;16.00;99.90
15357;DHT22;7778;48.792;9.260;2023-05-13T13:52:45;16.00;99.90
15357;DHT22;7778;48.792;9.260;2023-05-13T13:55:32;15.90;99.90
15357;DHT22;7778;48.792;9.260;2023-05-13T13:58:17;15.80;99.90
15357;DHT22;7778;48.792;9.260;2023-05-13T14:01:03;15.70;99.90
15357;DHT22;7778;48.792;9.260;2023-05-13T14:03:49;15.50;99.90
15357;DHT22;7778;48.792;9.260;2023-05-13T14:06:34;15.50;99.90
15357;DHT22;7778;48.792;9.260;2023-05-13T14:09:20;15.40;99.90
15357;DHT22;7778;48.792;9.260;2023-05-13T14:12:07;15.20;99.90
15357;DHT22;7778;48.792;9.260;2023-05-13T14:14:53;14.90;99.90
15357;DHT22;7778;48.792;9.260;2023-05-13T14:17:39;14.70;99.90
15357;DHT22;7778;48.792;9.260;2023-05-13T14:20:25;14.60;99.90
15357;DHT22;7778;48.792;9.260;2023-05-13T14:23:11;14.90;99.90
15357;DHT22;7778;48.792;9.260;2023-05-13T14:25:57;14.80;99.90
15357;DHT22;7778;48.792;9.260;2023-05-13T14:28:44;14.50;99.90
15357;DHT22;7778;48.792;9.260;2023-05-13T14:31:30;14.60;99.90
15357;DHT22;7778;48.792;9.260;2023-05-13T14:34:15;14.70;99.90
15357;DHT22;7778;48.792;9.260;2023-05-13T14:37:01;15.00;99.90
15357;DHT22;7778;48.792;9.260;2023-05-13T14:39:47;15.30;99.90
15357;DHT22;7778;48.792;9.260;2023-05-13T14:42:32;15.50;99.90
15357;DHT22;7778;48.792;9.260;2023-05-13T14:45:19;15.30;99.90
15357;DHT22;7778;48.792;9.260;2023-05-13T14:48:05;15.30;99.90
15357;DHT22;7778;48.792;9.260;2023-05-13T14:50:51;15.50;99.90
15357;DHT22;7778;48.792;9.260;2023-05-13T14:53:37;15.90;99.90
15357;DHT22;7778;48.792;9.260;2023-05-13T14:56:23;15.80;99.90
15357;DHT22;7778;48.792;9.260;2023-05-13T14:59:09;15.90;99.90
15357;DHT22;7778;48.792;9.260;2023-05-13T15:01:55;15.70;99.90
15357;DHT22;7778;48.792;9.260;2023-05-13T15:04:41;15.40;99.90
15357;DHT22;7778;48.792;9.260;2023-05-13T15:07:27;15.40;99.90
15357;DHT22;7778;48.792;9.260;2023-05-13T15:10:13;15.40;99.90
15357;DHT22;7778;48.792;9.260;2023-05-13T15:12:58;15.40;99.90
15357;DHT22;7778;48.792;9.260;2023-05-13T15:15:44;15.40;99.90
15357;DHT22;7778;48.792;9.260;2023-05-13T15:18:31;15.50;99.90
15357;DHT22;7778;48.792;9.260;2023-05-13T15:21:17;15.70;99.90
15357;DHT22;7778;48.792;9.260;2023-05-13T15:24:03;15.80;99.90
15357;DHT22;7778;48.792;9.260;2023-05-13T15:26:49;16.00;99.90
15357;DHT22;7778;48.792;9.260;2023-05-13T15:29:34;16.00;99.90
15357;DHT22;7778;48.792;9.260;2023-05-13T15:32:20;16.10;99.90
15357;DHT22;7778;48.792;9.260;2023-05-13T15:35:07;16.00;99.90
15357;DHT22;7778;48.792;9.260;2023-05-13T15:37:54;15.80;99.90
15357;DHT22;7778;48.792;9.260;2023-05-13T15:40:40;16.00;99.90
15357;DHT22;7778;48.792;9.260;2023-05-13T15:43:25;16.00;99.90
15357;DHT22;7778;48.792;9.260;2023-05-13T15:46:11;16.10;99.90
15357;DHT22;7778;48.792;9.260;2023-05-13T15:48:57;16.30;99.90
15357;DHT22;7778;48.792;9.260;2023-05-13T15:51:44;16.10;99.90
15357;DHT22;7778;48.792;9.260;2023-05-13T15:54:30;15.90;99.90
15357;DHT22;7778;48.792;9.260;2023-05-13T15:57:15;16.00;99.90
15357;DHT22;7778;48.792;9.260;2023-05-13T16:00:02;16.10;99.90
15357;DHT22;7778;48.792;9.260;2023-05-13T16:02:48;16.10;99.90
15357;DHT22;7778;48.792;9.260;2023-05-13T16:05:34;16.00;99.90
15357;DHT22;7778;48.792;9.260;2023-05-13T16:08:23;16.00;99.90
15357;DHT22;7778;48.792;9.260;2023-05-13T16:11:08;15.90;99.90
15357;DHT22;7778;48.792;9.260;2023-05-13T16:13:56;15.70;99.90
15357;DHT22;7778;48.792;9.260;2023-05-13T16:16:42;15.40;99.90
15357;DHT22;7778;48.792;9.260;2023-05-13T16:19:27;15.40;99.90
15357;DHT22;7778;48.792;9.260;2023-05-13T16:22:30;15.40;99.90
15357;DHT22;7778;48.792;9.260;2023-05-13T16:25:18;15.30;99.90
15357;DHT22;7778;48.792;9.260;2023-05-13T16:28:04;15.20;99.90
15357;DHT22;7778;48.792;9.260;2023-05-13T16:30:50;15.20;99.90
15357;DHT22;7778;48.792;9.260;2023-05-13T16:33:37;15.30;99.90
15357;DHT22;7778;48.792;9.260;2023-05-13T16:36:23;15.40;99.90
15357;DHT22;7778;48.792;9.260;2023-05-13T16:39:09;15.20;99.90
15357;DHT22;7778;48.792;9.260;2023-05-13T16:41:56;15.20;99.90
15357;DHT22;7778;48.792;9.260;2023-05-13T16:44:41;15.20;99.90
15357;DHT22;7778;48.792;9.260;2023-05-13T16:47:27;15.10;99.90
15357;DHT22;7778;48.792;9.260;2023-05-13T16:50:13;15.20;99.90
15357;DHT22;7778;48.792;9.260;2023-05-13T16:52:58;15.10;99.90
15357;DHT22;7778;48.792;9.260;2023-05-13T16:55:44;15.30;99.90
15357;DHT22;7778;48.792;9.260;2023-05-13T16:58:31;15.40;99.90
15357;DHT22;7778;48.792;9.260;2023-05-13T17:01:16;15.50;99.90
15357;DHT22;7778;48.792;9.260;2023-05-13T17:04:02;15.60;99.90
15357;DHT22;7778;48.792;9.260;2023-05-13T17:06:48;15.50;99.90
15357;DHT22;7778;48.792;9.260;2023-05-13T17:09:33;15.50;99.90
15357;DHT22;7778;48.792;9.260;2023-05-13T17:12:19;15.30;99.90
15357;DHT22;7778;48.792;9.260;2023-05-13T17:15:07;15.20;99.90
15357;DHT22;7778;48.792;9.260;2023-05-13T17:17:53;15.10;99.90
15357;DHT22;7778;48.792;9.260;2023-05-13T17:20:38;15.10;99.90
15357;DHT22;7778;48.792;9.260;2023-05-13T17:23:24;15.20;99.90
15357;DHT22;7778;48.792;9.260;2023-05-13T17:26:10;15.20;99.90
15357;DHT22;7778;48.792;9.260;2023-05-13T17:28:55;15.20;99.90
15357;DHT22;7778;48.792;9.260;2023-05-13T17:31:44;15.10;99.90
15357;DHT22;7778;48.792;9.260;2023-05-13T17:34:29;15.10;99.90
15357;DHT22;7778;48.792;9.260;2023-05-13T17:37:15;15.10;99.90
15357;DHT22;7778;48.792;9.260;2023-05-13T17:40:00;15.20;99.90
15357;DHT22;7778;48.792;9.260;2023-05-13T17:42:46;15.20;99.90
15357;DHT22;7778;48.792;9.260;2023-05-13T17:45:32;15.20;99.90
15357;DHT22;7778;48.792;9.260;2023-05-13T17:48:19;15.30;99.90
15357;DHT22;7778;48.792;9.260;2023-05-13T17:51:05;15.20;99.90